createdAt,value
2018-07-08T00:09:36.239Z,0
2018-07-08T00:19:50.504Z,0
2018-07-08T00:30:05.513Z,0
2018-07-08T00:40:20.102Z,0
2018-07-08T00:50:35.617Z,0
2018-07-08T01:00:49.342Z,0
2018-07-08T01:11:03.117Z,0
2018-07-08T01:21:18.324Z,0
2018-07-08T01:31:33.416Z,0
2018-07-08T01:41:47.231Z,0
2018-07-08T01:52:01.368Z,0
2018-07-08T02:02:16.683Z,0
2018-07-08T02:12:30.956Z,0
2018-07-08T02:22:45.554Z,0
2018-07-08T02:32:59.820Z,0
2018-07-08T02:43:14.039Z,0
2018-07-08T02:53:30.235Z,0
2018-07-08T03:03:44.991Z,0
2018-07-08T03:13:59.127Z,5
2018-07-08T03:24:13.328Z,15
2018-07-08T03:34:27.751Z,25
2018-07-08T03:44:42.758Z,40
2018-07-08T03:54:57.692Z,55
2018-07-08T04:05:11.508Z,70
2018-07-08T04:15:25.548Z,90
2018-07-08T04:25:39.598Z,100
2018-07-08T04:35:53.839Z,115
2018-07-08T04:46:09.210Z,130
2018-07-08T04:56:24.560Z,145
2018-07-08T05:06:40.228Z,160
2018-07-08T05:16:55.319Z,170
2018-07-08T05:27:09.615Z,185
2018-07-08T05:37:24.947Z,200
2018-07-08T05:47:39.676Z,215
2018-07-08T05:57:53.771Z,220
2018-07-08T06:08:08.931Z,245
2018-07-08T06:18:23.473Z,795
2018-07-08T06:28:39.139Z,1065
2018-07-08T06:38:53.649Z,1080
2018-07-08T06:49:08.909Z,1060
2018-07-08T06:59:22.665Z,1225
2018-07-08T07:09:37.980Z,975
2018-07-08T07:19:53.501Z,1240
2018-07-08T07:30:08.717Z,1170
2018-07-08T07:40:22.262Z,1340
2018-07-08T07:50:37.405Z,1395
2018-07-08T08:00:51.593Z,1410
2018-07-08T08:11:05.727Z,1570
2018-07-08T08:21:20.303Z,1590
2018-07-08T08:31:35.276Z,1645
2018-07-08T08:41:50.163Z,1700
2018-07-08T08:52:05.404Z,1690
2018-07-08T09:02:20.787Z,1735
2018-07-08T09:12:34.781Z,1820
2018-07-08T09:22:50.354Z,1865
2018-07-08T09:33:04.463Z,1685
2018-07-08T09:43:19.490Z,1830
2018-07-08T09:53:33.437Z,1970
2018-07-08T10:03:47.781Z,1825
2018-07-08T10:14:02.456Z,1940
2018-07-08T10:24:17.244Z,2010
2018-07-08T10:34:31.908Z,2005
2018-07-08T10:44:45.793Z,2030
2018-07-08T10:55:01.188Z,2130
2018-07-08T11:05:16.276Z,2070
2018-07-08T11:15:30.931Z,2125
2018-07-08T11:25:46.294Z,2195
2018-07-08T11:36:01.101Z,2085
2018-07-08T11:46:16.116Z,2230
2018-07-08T11:56:30.813Z,2245
2018-07-08T12:06:46.178Z,2130
2018-07-08T12:17:01.540Z,2060
2018-07-08T12:27:16.289Z,1960
2018-07-08T12:37:31.243Z,2055
2018-07-08T12:47:46.498Z,1890
2018-07-08T12:58:01.318Z,1750
2018-07-08T13:08:15.608Z,1615
2018-07-08T13:18:30.128Z,1500
2018-07-08T13:28:45.163Z,1235
2018-07-08T13:38:59.513Z,1135
2018-07-08T13:49:13.522Z,610
2018-07-08T13:59:28.924Z,1250
2018-07-08T14:09:43.610Z,1560
2018-07-08T14:19:58.266Z,3250
2018-07-08T14:30:14.041Z,1980
2018-07-08T14:40:29.867Z,1830
2018-07-08T14:50:43.949Z,1980
2018-07-08T15:00:58.364Z,1900
2018-07-08T15:11:13.529Z,1945
2018-07-08T15:21:28.450Z,1885
2018-07-08T15:31:43.300Z,1765
2018-07-08T15:41:58.272Z,1665
2018-07-08T15:52:12.947Z,1440
2018-07-08T16:02:27.452Z,1380
2018-07-08T16:12:41.421Z,1255
2018-07-08T16:22:55.610Z,1340
2018-07-08T16:33:10.410Z,940
2018-07-08T16:43:25.446Z,1720
2018-07-08T16:53:41.059Z,425
2018-07-08T17:03:56.917Z,360
2018-07-08T17:14:12.045Z,325
2018-07-08T17:24:27.507Z,295
2018-07-08T17:34:43.541Z,285
2018-07-08T17:44:59.097Z,270
2018-07-08T17:55:14.930Z,245
2018-07-08T18:05:29.442Z,170
2018-07-08T18:25:59.545Z,140
2018-07-08T18:36:14.928Z,120
2018-07-08T18:46:29.505Z,105
2018-07-08T18:56:45.221Z,90
2018-07-08T19:07:00.611Z,75
2018-07-08T19:17:16.109Z,55
2018-07-08T19:27:31.428Z,35
2018-07-08T19:37:45.955Z,25
2018-07-08T19:48:01.505Z,10
2018-07-08T19:58:15.756Z,5
2018-07-08T20:08:30.346Z,0
2018-07-08T20:18:45.531Z,0
2018-07-08T20:29:00.171Z,0
2018-07-08T20:39:15.538Z,0
2018-07-08T20:49:29.257Z,0
2018-07-08T20:59:43.616Z,0
2018-07-08T21:09:58.794Z,0
2018-07-08T21:20:12.976Z,0
2018-07-08T21:30:27.623Z,0
2018-07-08T21:40:41.600Z,0
2018-07-08T21:50:56.084Z,0
2018-07-08T22:01:10.739Z,0
2018-07-08T22:11:26.144Z,0
2018-07-08T22:21:40.588Z,0
2018-07-08T22:31:55.988Z,0
2018-07-08T22:42:11.547Z,0
2018-07-08T22:52:25.944Z,0
2018-07-08T23:02:40.413Z,0
2018-07-08T23:12:55.556Z,0
2018-07-08T23:23:11.071Z,0
2018-07-08T23:33:26.097Z,0
2018-07-08T23:43:40.978Z,0
2018-07-08T23:53:55.820Z,0
